createdAt,value
2023-04-09T00:01:29.390Z,17.20
2023-04-09T00:06:32.458Z,16.90
2023-04-09T00:11:35.671Z,15.10
2023-04-09T00:16:38.736Z,14.30
2023-04-09T00:21:41.789Z,13.50
2023-04-09T00:26:44.894Z,13.40
2023-04-09T00:31:47.867Z,12.90
2023-04-09T00:36:50.919Z,13.90
2023-04-09T00:42:00.056Z,13.40
2023-04-09T00:47:03.774Z,13.50
2023-04-09T00:52:07.813Z,13.10
2023-04-09T00:57:12.598Z,12.70
2023-04-09T01:02:15.884Z,13.10
2023-04-09T01:07:41.301Z,15.20
2023-04-09T01:13:06.016Z,14.20
2023-04-09T01:18:31.255Z,13.90
2023-04-09T01:23:46.856Z,14.20
2023-04-09T01:28:54.923Z,12.50
2023-04-09T01:34:00.445Z,12.60
2023-04-09T01:39:04.114Z,12.70
2023-04-09T01:44:10.008Z,13.60
2023-04-09T01:49:13.502Z,12.90
2023-04-09T01:54:17.068Z,12.50
2023-04-09T01:59:20.080Z,13.30
2023-04-09T02:04:32.813Z,15.60
2023-04-09T02:09:39.506Z,12.20
2023-04-09T02:14:44.440Z,14.40
2023-04-09T02:19:48.296Z,14.70
2023-04-09T02:24:51.193Z,14.20
2023-04-09T02:29:54.010Z,15.60
2023-04-09T02:34:57.000Z,12.60
2023-04-09T02:39:59.898Z,15.80
2023-04-09T02:45:02.706Z,14.80
2023-04-09T02:50:06.580Z,14.40
2023-04-09T02:55:09.646Z,17.60
2023-04-09T03:00:13.492Z,18.00
2023-04-09T03:05:16.479Z,16.60
2023-04-09T03:10:19.579Z,19.00
2023-04-09T03:15:22.489Z,17.40
2023-04-09T03:20:25.699Z,16.60
2023-04-09T03:25:28.705Z,17.40
2023-04-09T03:30:31.711Z,11.50
2023-04-09T03:35:34.659Z,17.40
2023-04-09T03:40:37.829Z,18.80
2023-04-09T03:45:41.208Z,11.60
2023-04-09T03:50:44.145Z,12.60
2023-04-09T03:55:47.156Z,11.20
2023-04-09T04:00:50.464Z,10.10
2023-04-09T04:05:53.471Z,11.20
2023-04-09T04:10:56.484Z,13.40
2023-04-09T04:15:59.442Z,13.90
2023-04-09T04:21:02.904Z,12.00
2023-04-09T04:26:11.982Z,12.10
2023-04-09T04:31:15.772Z,11.40
2023-04-09T04:36:18.777Z,9.80
2023-04-09T04:41:21.786Z,11.80
2023-04-09T04:46:24.996Z,9.50
2023-04-09T04:51:28.001Z,10.90
2023-04-09T04:56:31.118Z,10.90
2023-04-09T05:01:34.164Z,12.10
2023-04-09T05:06:37.331Z,12.90
2023-04-09T05:11:40.550Z,9.80
2023-04-09T05:16:43.685Z,10.20
2023-04-09T05:21:47.454Z,12.30
2023-04-09T05:26:50.636Z,11.00
2023-04-09T05:31:53.595Z,10.70
2023-04-09T05:36:56.702Z,11.40
2023-04-09T05:41:59.812Z,9.50
2023-04-09T05:47:03.413Z,9.40
2023-04-09T05:52:06.446Z,10.00
2023-04-09T05:57:09.342Z,8.30
2023-04-09T06:02:12.416Z,11.70
2023-04-09T06:07:15.457Z,11.70
2023-04-09T06:12:18.360Z,10.30
2023-04-09T06:17:21.488Z,8.90
2023-04-09T06:22:24.588Z,9.70
2023-04-09T06:27:28.002Z,7.20
2023-04-09T06:32:33.604Z,9.80
2023-04-09T06:37:41.097Z,7.80
2023-04-09T06:42:44.288Z,8.40
2023-04-09T06:47:47.587Z,10.40
2023-04-09T06:52:51.734Z,10.30
2023-04-09T06:57:54.941Z,10.90
2023-04-09T07:02:58.054Z,12.70
2023-04-09T07:08:01.581Z,10.20
2023-04-09T07:13:04.699Z,9.70
2023-04-09T07:18:08.303Z,9.60
2023-04-09T07:23:12.238Z,10.00
2023-04-09T07:28:15.643Z,10.50
2023-04-09T07:33:18.749Z,10.60
2023-04-09T07:38:21.862Z,9.60
2023-04-09T07:43:24.869Z,11.20
2023-04-09T07:48:28.364Z,10.90
2023-04-09T07:53:31.498Z,10.40
2023-04-09T07:58:34.610Z,11.80
2023-04-09T08:03:37.992Z,10.30
2023-04-09T08:08:41.954Z,11.00
2023-04-09T08:13:45.058Z,11.60
2023-04-09T08:18:48.068Z,13.20
2023-04-09T08:23:51.482Z,11.20
2023-04-09T08:28:54.880Z,11.00
2023-04-09T08:33:58.419Z,10.20
2023-04-09T08:39:02.350Z,10.00
2023-04-09T08:44:05.450Z,13.00
2023-04-09T08:49:10.379Z,10.80
2023-04-09T08:54:20.178Z,10.90
2023-04-09T08:59:23.384Z,11.50
2023-04-09T09:04:45.433Z,10.00
2023-04-09T09:10:07.322Z,10.30
2023-04-09T09:15:28.769Z,10.20
2023-04-09T09:20:31.828Z,10.30
2023-04-09T09:25:43.737Z,10.40
2023-04-09T09:30:48.615Z,11.00
2023-04-09T09:35:54.642Z,10.10
2023-04-09T09:40:58.457Z,9.60
2023-04-09T09:46:02.688Z,9.00
2023-04-09T09:51:14.143Z,10.30
2023-04-09T09:56:22.703Z,9.90
2023-04-09T10:01:28.151Z,9.70
2023-04-09T10:06:34.282Z,10.50
2023-04-09T10:11:38.284Z,10.50
2023-04-09T10:16:42.019Z,9.40
2023-04-09T10:21:54.834Z,9.80
2023-04-09T10:27:10.414Z,10.60
2023-04-09T10:32:21.249Z,9.90
2023-04-09T10:37:28.813Z,10.70
2023-04-09T10:42:41.955Z,11.00
2023-04-09T10:47:46.536Z,10.70
2023-04-09T10:52:57.761Z,10.70
2023-04-09T10:58:00.908Z,10.70
2023-04-09T11:03:06.118Z,10.60
2023-04-09T11:08:11.793Z,10.30
2023-04-09T11:13:17.110Z,10.30
2023-04-09T11:18:22.598Z,12.90
2023-04-09T11:23:26.627Z,8.50
2023-04-09T11:28:29.715Z,8.50
2023-04-09T11:33:34.474Z,9.40
2023-04-09T11:38:39.070Z,9.50
2023-04-09T11:43:42.198Z,9.10
2023-04-09T11:48:45.606Z,9.70
2023-04-09T11:53:49.861Z,10.30
2023-04-09T11:58:54.955Z,10.50
2023-04-09T12:03:58.070Z,9.90
2023-04-09T12:09:01.435Z,10.30
2023-04-09T12:14:05.724Z,9.50
2023-04-09T12:19:09.946Z,10.50
2023-04-09T12:24:13.226Z,10.20
2023-04-09T12:29:18.814Z,9.40
2023-04-09T12:34:21.996Z,9.00
2023-04-09T12:39:25.409Z,10.20
2023-04-09T12:44:28.420Z,9.70
2023-04-09T12:49:31.428Z,10.00
2023-04-09T12:54:34.741Z,10.40
2023-04-09T12:59:37.742Z,9.00
2023-04-09T13:04:41.601Z,8.70
2023-04-09T13:09:46.072Z,8.70
2023-04-09T13:14:49.735Z,9.00
2023-04-09T13:19:52.913Z,9.00
2023-04-09T13:24:55.956Z,7.90
2023-04-09T13:29:58.958Z,6.80
2023-04-09T13:35:02.169Z,7.20
2023-04-09T13:40:06.106Z,10.00
2023-04-09T13:45:09.579Z,7.70
2023-04-09T13:50:13.971Z,8.00
2023-04-09T13:55:16.962Z,9.20
2023-04-09T14:00:20.993Z,7.50
2023-04-09T14:05:24.105Z,7.30
2023-04-09T14:10:27.800Z,9.10
2023-04-09T14:15:30.949Z,6.80
2023-04-09T14:20:35.169Z,6.20
2023-04-09T14:25:38.584Z,6.20
2023-04-09T14:30:42.409Z,10.50
2023-04-09T14:35:45.541Z,11.10
2023-04-09T14:40:48.639Z,12.10
2023-04-09T14:45:52.043Z,12.40
2023-04-09T14:50:55.261Z,13.10
2023-04-09T14:55:58.260Z,12.80
2023-04-09T15:01:01.348Z,12.40
2023-04-09T15:06:04.796Z,12.90
2023-04-09T15:11:08.827Z,12.70
2023-04-09T15:16:20.587Z,12.10
2023-04-09T15:21:24.158Z,11.90
2023-04-09T15:26:27.555Z,10.90
2023-04-09T15:31:31.043Z,11.70
2023-04-09T15:36:34.877Z,10.90
2023-04-09T15:41:38.302Z,11.00
2023-04-09T15:46:41.231Z,10.90
2023-04-09T15:51:44.249Z,10.70
2023-04-09T15:56:47.256Z,10.70
2023-04-09T16:01:50.793Z,10.60
2023-04-09T16:06:55.619Z,9.30
2023-04-09T16:11:58.725Z,7.70
2023-04-09T16:17:01.717Z,8.40
2023-04-09T16:22:05.046Z,8.00
2023-04-09T16:27:08.236Z,8.80
2023-04-09T16:32:11.419Z,9.20
2023-04-09T16:37:14.518Z,10.40
2023-04-09T16:42:17.585Z,8.00
2023-04-09T16:47:20.873Z,8.30
2023-04-09T16:52:24.515Z,8.00
2023-04-09T16:57:27.419Z,7.30
2023-04-09T17:02:30.957Z,7.40
2023-04-09T17:07:34.144Z,7.30
2023-04-09T17:12:38.239Z,8.00
2023-04-09T17:17:41.331Z,8.90
2023-04-09T17:22:44.503Z,10.90
2023-04-09T17:27:47.603Z,10.30
2023-04-09T17:32:51.343Z,10.60
2023-04-09T17:37:55.156Z,9.60
2023-04-09T17:42:58.384Z,8.50
2023-04-09T17:48:01.401Z,11.50
2023-04-09T17:53:04.586Z,11.20
2023-04-09T17:58:07.487Z,9.50
2023-04-09T18:03:12.487Z,8.80
2023-04-09T18:08:15.969Z,8.00
2023-04-09T18:13:19.081Z,7.80
2023-04-09T18:18:22.186Z,10.60
2023-04-09T18:23:27.130Z,11.70
2023-04-09T18:28:30.139Z,11.60
2023-04-09T18:33:33.146Z,9.10
2023-04-09T18:38:37.177Z,9.10
2023-04-09T18:43:40.280Z,8.30
2023-04-09T18:48:47.309Z,8.20
2023-04-09T18:53:53.137Z,7.20
2023-04-09T18:58:56.580Z,7.60
2023-04-09T19:03:59.681Z,7.40
2023-04-09T19:09:04.630Z,7.30
2023-04-09T19:14:07.656Z,7.40
2023-04-09T19:19:11.972Z,7.70
2023-04-09T19:24:15.096Z,9.40
2023-04-09T19:29:18.207Z,9.90
2023-04-09T19:34:21.965Z,7.70
2023-04-09T19:39:24.940Z,7.60
2023-04-09T19:44:28.160Z,8.00
2023-04-09T19:49:31.264Z,7.30
2023-04-09T19:54:35.202Z,7.40
2023-04-09T19:59:40.131Z,6.90
2023-04-09T20:04:43.356Z,7.50
2023-04-09T20:09:47.162Z,6.30
2023-04-09T20:14:50.289Z,6.30
2023-04-09T20:19:55.544Z,6.80
2023-04-09T20:25:00.142Z,6.10
2023-04-09T20:30:03.784Z,6.20
2023-04-09T20:35:08.498Z,5.70
2023-04-09T20:40:12.443Z,6.00
2023-04-09T20:45:15.994Z,6.10
2023-04-09T20:50:19.704Z,6.90
2023-04-09T20:55:22.623Z,7.50
2023-04-09T21:00:25.842Z,5.60
2023-04-09T21:05:29.149Z,7.60
2023-04-09T21:10:32.152Z,8.50
2023-04-09T21:15:35.578Z,6.90
2023-04-09T21:20:46.262Z,6.00
2023-04-09T21:25:49.481Z,7.20
2023-04-09T21:30:52.752Z,8.40
2023-04-09T21:35:56.052Z,7.60
2023-04-09T21:41:00.145Z,8.20
2023-04-09T21:46:03.423Z,8.50
2023-04-09T21:51:10.712Z,7.40
2023-04-09T21:56:13.672Z,7.30
2023-04-09T22:01:26.482Z,7.40
2023-04-09T22:06:32.406Z,6.70
2023-04-09T22:11:35.793Z,7.20
2023-04-09T22:16:39.005Z,6.80
2023-04-09T22:21:42.235Z,6.70
2023-04-09T22:26:46.933Z,6.70
2023-04-09T22:31:49.862Z,5.30
2023-04-09T22:36:52.980Z,5.50
2023-04-09T22:41:56.381Z,5.40
2023-04-09T22:46:59.455Z,5.30
2023-04-09T22:52:02.511Z,6.20
2023-04-09T22:57:05.912Z,5.80
2023-04-09T23:02:09.141Z,5.60
2023-04-09T23:07:12.850Z,6.00
2023-04-09T23:12:15.746Z,8.20
2023-04-09T23:17:19.171Z,9.50
2023-04-09T23:22:22.379Z,8.00
2023-04-09T23:27:28.764Z,6.60
2023-04-09T23:32:31.884Z,5.80
2023-04-09T23:37:34.879Z,6.10
2023-04-09T23:42:38.367Z,6.50
2023-04-09T23:47:41.418Z,6.30
2023-04-09T23:52:49.040Z,6.20
2023-04-09T23:57:52.024Z,6.00
